createdAt,value
2022-11-17T00:02:34.525Z,100057.05
2022-11-17T00:06:07.017Z,100054.07
2022-11-17T00:09:34.517Z,100047.69
2022-11-17T00:13:19.866Z,100035.39
2022-11-17T00:16:53.282Z,100039.98
2022-11-17T00:20:51.042Z,100032.77
2022-11-17T00:24:29.551Z,100031.31
2022-11-17T00:27:57.029Z,100027.27
2022-11-17T00:31:42.842Z,100025.83
2022-11-17T00:35:11.134Z,100033.41
2022-11-17T00:38:38.839Z,100031.39
2022-11-17T00:42:06.572Z,100034.88
2022-11-17T00:45:34.223Z,100036.25
2022-11-17T00:49:01.657Z,100038.79
2022-11-17T00:52:29.401Z,100040.14
2022-11-17T00:55:57.807Z,100044.80
2022-11-17T00:59:25.510Z,100048.21
2022-11-17T01:02:52.872Z,100049.69
2022-11-17T01:06:22.117Z,100046.71
2022-11-17T01:09:49.608Z,100048.17
2022-11-17T01:13:18.814Z,100042.83
2022-11-17T01:16:47.137Z,100038.75
2022-11-17T01:20:16.028Z,100035.42
2022-11-17T01:23:47.009Z,100035.77
2022-11-17T01:27:15.427Z,100031.52
2022-11-17T01:31:37.521Z,100036.54
2022-11-17T01:35:07.033Z,100036.70
2022-11-17T01:38:34.954Z,100037.69
2022-11-17T01:42:07.850Z,100036.08
2022-11-17T01:45:35.753Z,100035.98
2022-11-17T01:49:08.620Z,100037.09
2022-11-17T01:52:39.783Z,100032.79
2022-11-17T01:56:13.319Z,100032.25
2022-11-17T01:59:44.051Z,100033.55
2022-11-17T02:03:11.540Z,100034.63
2022-11-17T02:06:39.923Z,100032.45
2022-11-17T02:10:08.519Z,100029.59
2022-11-17T02:13:38.941Z,100019.36
2022-11-17T02:17:13.744Z,100012.17
2022-11-17T02:21:03.116Z,100007.05
2022-11-17T02:25:00.792Z,100004.16
2022-11-17T02:28:31.117Z,99999.88
2022-11-17T02:32:06.361Z,99998.67
2022-11-17T02:35:42.307Z,99999.14
2022-11-17T02:39:15.876Z,99999.72
2022-11-17T02:43:04.211Z,99996.00
2022-11-17T02:46:33.879Z,100002.45
2022-11-17T02:50:07.046Z,100001.90
2022-11-17T02:53:35.285Z,100004.30
2022-11-17T02:57:02.663Z,100004.81
2022-11-17T03:00:33.364Z,100004.68
2022-11-17T03:04:16.825Z,99997.80
2022-11-17T03:08:06.696Z,99994.70
2022-11-17T03:11:41.839Z,100000.25
2022-11-17T03:15:20.809Z,100002.58
2022-11-17T03:19:00.319Z,100004.55
2022-11-17T03:22:32.029Z,100002.48
2022-11-17T03:26:02.902Z,100002.31
2022-11-17T03:29:34.000Z,99996.63
2022-11-17T03:33:08.315Z,99997.14
2022-11-17T03:36:38.128Z,99997.92
2022-11-17T03:40:09.197Z,99999.68
2022-11-17T03:43:36.580Z,100004.21
2022-11-17T03:47:21.860Z,100003.58
2022-11-17T03:50:53.779Z,99997.48
2022-11-17T03:54:20.821Z,99996.02
2022-11-17T03:57:55.160Z,99996.30
2022-11-17T04:01:24.150Z,100000.65
2022-11-17T04:05:09.471Z,100003.14
2022-11-17T04:08:36.226Z,100002.65
2022-11-17T04:12:20.286Z,99996.81
2022-11-17T04:15:59.522Z,99989.02
2022-11-17T04:19:26.474Z,99991.06
2022-11-17T04:23:07.246Z,99999.04
2022-11-17T04:26:51.798Z,100007.33
2022-11-17T04:30:18.990Z,100006.17
2022-11-17T04:33:50.334Z,100004.27
2022-11-17T04:37:18.868Z,100005.99
2022-11-17T04:41:05.298Z,99999.63
2022-11-17T04:44:33.813Z,100001.70
2022-11-17T04:48:00.840Z,100000.08
2022-11-17T04:51:29.069Z,99995.21
2022-11-17T04:54:55.672Z,99994.71
2022-11-17T04:58:22.308Z,99992.89
2022-11-17T05:01:49.461Z,99994.68
2022-11-17T05:05:16.508Z,99993.73
2022-11-17T05:08:43.657Z,99989.92
2022-11-17T05:12:29.515Z,99990.55
2022-11-17T05:16:18.709Z,99993.36
2022-11-17T05:19:47.078Z,99992.92
2022-11-17T05:23:36.965Z,99993.39
2022-11-17T05:27:04.737Z,99992.11
2022-11-17T05:30:31.642Z,99994.90
2022-11-17T05:33:58.941Z,99988.05
2022-11-17T05:37:25.526Z,99985.52
2022-11-17T05:40:52.035Z,99984.96
2022-11-17T05:44:18.985Z,99982.98
2022-11-17T05:47:45.776Z,99982.02
2022-11-17T05:51:13.376Z,99985.39
2022-11-17T05:54:40.565Z,99988.94
2022-11-17T05:58:40.725Z,99989.29
2022-11-17T06:02:09.669Z,99986.20
2022-11-17T06:05:40.073Z,99989.15
2022-11-17T06:09:07.267Z,99987.88
2022-11-17T06:12:33.913Z,99992.40
2022-11-17T06:16:04.260Z,99997.08
2022-11-17T06:19:40.789Z,99999.23
2022-11-17T06:23:09.845Z,99999.18
2022-11-17T06:26:37.185Z,100001.88
2022-11-17T06:30:06.084Z,100003.67
2022-11-17T06:33:37.769Z,100005.30
2022-11-17T06:37:04.217Z,100007.74
2022-11-17T06:40:31.031Z,100012.95
2022-11-17T06:43:57.833Z,100010.78
2022-11-17T06:47:24.462Z,100004.86
2022-11-17T06:50:51.445Z,100005.94
2022-11-17T06:54:17.887Z,100006.46
2022-11-17T06:57:50.337Z,100008.32
2022-11-17T07:01:19.777Z,100008.27
2022-11-17T07:04:46.503Z,100011.83
2022-11-17T07:08:14.633Z,100005.29
2022-11-17T07:11:41.183Z,100005.39
2022-11-17T07:15:10.894Z,100003.66
2022-11-17T07:18:38.783Z,100006.20
2022-11-17T07:22:06.481Z,100010.80
2022-11-17T07:25:32.989Z,100006.95
2022-11-17T07:29:00.233Z,100009.86
2022-11-17T07:32:27.235Z,100008.84
2022-11-17T07:35:55.283Z,100006.49
2022-11-17T07:39:22.104Z,100005.18
2022-11-17T07:42:52.837Z,100007.13
2022-11-17T07:46:19.710Z,100006.98
2022-11-17T07:49:47.006Z,100004.44
2022-11-17T07:53:14.469Z,100005.96
2022-11-17T07:56:42.505Z,100006.98
2022-11-17T08:00:11.392Z,100004.20
2022-11-17T08:03:41.489Z,100000.27
2022-11-17T08:07:08.185Z,100005.89
2022-11-17T08:10:37.948Z,100005.41
2022-11-17T08:14:04.427Z,100004.81
2022-11-17T08:17:32.329Z,100003.98
2022-11-17T08:21:05.564Z,100000.49
2022-11-17T08:24:32.337Z,99996.27
2022-11-17T08:28:00.073Z,99995.84
2022-11-17T08:31:27.320Z,99997.40
2022-11-17T08:34:54.542Z,99996.17
2022-11-17T08:38:21.027Z,100002.35
2022-11-17T08:41:47.574Z,100001.52
2022-11-17T08:45:15.006Z,99997.70
2022-11-17T08:48:41.690Z,100001.05
2022-11-17T08:52:08.784Z,100000.36
2022-11-17T08:55:41.382Z,100000.70
2022-11-17T08:59:09.697Z,100004.24
2022-11-17T09:02:36.697Z,100006.83
2022-11-17T09:06:04.848Z,100005.63
2022-11-17T09:09:33.260Z,100003.06
2022-11-17T09:13:00.245Z,100002.71
2022-11-17T09:16:27.135Z,100004.75
2022-11-17T09:19:53.812Z,100000.77
2022-11-17T09:23:21.915Z,99996.12
2022-11-17T09:26:51.884Z,99994.52
2022-11-17T09:30:22.414Z,99996.89
2022-11-17T09:33:50.286Z,99995.98
2022-11-17T09:37:21.747Z,99993.77
2022-11-17T09:40:48.877Z,99991.10
2022-11-17T09:44:35.268Z,99987.09
2022-11-17T09:48:39.427Z,99986.94
2022-11-17T09:52:01.895Z,99985.75
2022-11-17T09:55:34.693Z,99983.23
2022-11-17T09:59:12.264Z,99980.16
2022-11-17T10:02:42.702Z,99978.23
2022-11-17T10:06:15.380Z,99970.37
2022-11-17T10:09:45.854Z,99971.79
2022-11-17T10:13:21.218Z,99975.64
2022-11-17T10:16:54.833Z,99974.67
2022-11-17T10:20:20.391Z,99968.34
2022-11-17T10:23:57.144Z,99963.17
2022-11-17T10:27:26.074Z,99957.58
2022-11-17T10:31:00.358Z,99963.67
2022-11-17T10:34:41.616Z,99960.83
2022-11-17T10:38:15.455Z,99959.27
2022-11-17T10:41:50.866Z,99959.95
2022-11-17T10:45:21.181Z,99956.50
2022-11-17T10:49:00.944Z,99951.65
2022-11-17T10:52:27.895Z,99952.42
2022-11-17T10:56:02.434Z,99952.05
2022-11-17T10:59:43.126Z,99952.40
2022-11-17T11:03:23.979Z,99956.81
2022-11-17T11:07:13.344Z,99946.10
2022-11-17T11:10:40.410Z,99944.98
2022-11-17T11:14:32.118Z,99943.36
2022-11-17T11:18:00.342Z,99942.54
2022-11-17T11:21:47.723Z,99943.32
2022-11-17T11:25:28.268Z,99939.50
2022-11-17T11:29:11.951Z,99938.00
2022-11-17T11:32:52.667Z,99935.69
2022-11-17T11:36:37.662Z,99932.80
2022-11-17T11:40:12.111Z,99933.43
2022-11-17T11:43:48.387Z,99935.97
2022-11-17T11:47:29.126Z,99928.20
2022-11-17T11:51:01.944Z,99930.06
2022-11-17T11:54:40.527Z,99932.54
2022-11-17T11:58:16.839Z,99935.02
2022-11-17T12:01:57.286Z,99935.10
2022-11-17T12:05:32.289Z,99935.77
2022-11-17T12:09:08.620Z,99928.36
2022-11-17T12:12:38.180Z,99926.92
2022-11-17T12:16:28.565Z,99926.20
2022-11-17T12:19:59.530Z,99924.25
2022-11-17T12:23:48.251Z,99922.99
2022-11-17T12:27:43.410Z,99910.85
2022-11-17T12:31:13.226Z,99918.68
2022-11-17T12:34:41.606Z,99914.77
2022-11-17T12:38:43.131Z,99910.77
2022-11-17T12:42:11.994Z,99911.25
2022-11-17T12:46:03.759Z,99910.84
2022-11-17T12:49:41.060Z,99910.98
2022-11-17T12:53:26.388Z,99907.06
2022-11-17T12:57:04.778Z,99914.51
2022-11-17T13:00:36.404Z,99907.48
2022-11-17T13:04:09.677Z,99905.11
2022-11-17T13:07:38.126Z,99907.11
2022-11-17T13:11:15.423Z,99904.95
2022-11-17T13:14:56.877Z,99905.23
2022-11-17T13:18:34.338Z,99900.73
2022-11-17T13:22:04.892Z,99897.98
2022-11-17T13:25:32.971Z,99893.48
2022-11-17T13:29:12.822Z,99889.71
2022-11-17T13:32:42.288Z,99892.56
2022-11-17T13:36:20.422Z,99888.32
2022-11-17T13:39:58.888Z,99891.42
2022-11-17T13:43:31.698Z,99885.60
2022-11-17T13:47:20.817Z,99887.67
2022-11-17T13:50:49.216Z,99889.71
2022-11-17T13:54:19.447Z,99890.15
2022-11-17T13:57:58.859Z,99892.31
2022-11-17T14:01:29.150Z,99889.43
2022-11-17T14:05:24.199Z,99884.71
2022-11-17T14:09:07.734Z,99878.86
2022-11-17T14:12:37.334Z,99878.09
2022-11-17T14:16:04.960Z,99878.23
2022-11-17T14:19:51.344Z,99877.44
2022-11-17T14:23:22.431Z,99878.48
2022-11-17T14:26:49.735Z,99879.58
2022-11-17T14:30:19.752Z,99881.53
2022-11-17T14:33:47.122Z,99877.36
2022-11-17T14:37:14.078Z,99888.73
2022-11-17T14:40:41.314Z,99895.23
2022-11-17T14:44:08.438Z,99891.25
2022-11-17T14:47:35.329Z,99889.79
2022-11-17T14:51:03.211Z,99885.51
2022-11-17T14:54:30.518Z,99886.52
2022-11-17T14:57:57.806Z,99883.08
2022-11-17T15:01:30.923Z,99892.67
2022-11-17T15:05:00.235Z,99886.07
2022-11-17T15:08:29.016Z,99877.30
2022-11-17T15:11:57.056Z,99871.71
2022-11-17T15:15:24.105Z,99873.75
2022-11-17T15:18:51.338Z,99871.02
2022-11-17T15:22:19.449Z,99871.13
2022-11-17T15:25:55.403Z,99866.44
2022-11-17T15:29:24.037Z,99867.69
2022-11-17T15:32:52.808Z,99862.98
2022-11-17T15:36:21.792Z,99864.52
2022-11-17T15:39:49.284Z,99865.62
2022-11-17T15:43:17.518Z,99865.83
2022-11-17T15:46:47.876Z,99864.23
2022-11-17T15:50:16.865Z,99865.59
2022-11-17T15:53:51.358Z,99864.81
2022-11-17T15:57:31.914Z,99865.57
2022-11-17T16:01:10.894Z,99855.59
2022-11-17T16:04:38.306Z,99855.39
2022-11-17T16:08:12.464Z,99856.92
2022-11-17T16:11:42.514Z,99854.14
2022-11-17T16:15:17.673Z,99853.19
2022-11-17T16:18:46.209Z,99856.88
2022-11-17T16:22:15.187Z,99850.52
2022-11-17T16:25:47.563Z,99845.19
2022-11-17T16:29:15.960Z,99848.73
2022-11-17T16:32:44.519Z,99851.78
2022-11-17T16:36:14.233Z,99851.25
2022-11-17T16:39:46.774Z,99851.73
2022-11-17T16:43:15.973Z,99852.20
2022-11-17T16:46:47.737Z,99842.02
2022-11-17T16:50:16.267Z,99854.91
2022-11-17T16:53:43.572Z,99862.55
2022-11-17T16:57:10.719Z,99866.27
2022-11-17T17:00:38.024Z,99866.34
2022-11-17T17:04:14.418Z,99862.97
2022-11-17T17:07:52.261Z,99858.60
2022-11-17T17:11:20.438Z,99856.98
2022-11-17T17:14:48.420Z,99855.73
2022-11-17T17:18:15.938Z,99854.61
2022-11-17T17:21:46.624Z,99848.56
2022-11-17T17:25:17.222Z,99849.09
2022-11-17T17:28:45.129Z,99845.73
2022-11-17T17:32:11.984Z,99841.43
2022-11-17T17:35:41.596Z,99841.55
2022-11-17T17:39:25.109Z,99840.75
2022-11-17T17:42:55.622Z,99842.14
2022-11-17T17:46:38.751Z,99842.36
2022-11-17T17:50:06.424Z,99833.50
2022-11-17T17:53:35.392Z,99833.88
2022-11-17T17:57:07.686Z,99837.52
2022-11-17T18:00:41.231Z,99836.16
2022-11-17T18:04:16.292Z,99843.89
2022-11-17T18:07:54.362Z,99841.27
2022-11-17T18:11:27.176Z,99842.46
2022-11-17T18:14:54.894Z,99841.58
2022-11-17T18:18:24.890Z,99841.25
2022-11-17T18:21:58.523Z,99838.02
2022-11-17T18:25:29.728Z,99838.55
2022-11-17T18:29:01.228Z,99836.98
2022-11-17T18:32:32.691Z,99836.96
2022-11-17T18:36:05.909Z,99832.71
2022-11-17T18:39:33.908Z,99829.30
2022-11-17T18:43:03.193Z,99830.99
2022-11-17T18:46:32.205Z,99829.23
2022-11-17T18:50:02.295Z,99828.21
2022-11-17T18:53:35.352Z,99827.72
2022-11-17T18:57:03.565Z,99822.42
2022-11-17T19:00:40.382Z,99822.73
2022-11-17T19:04:07.878Z,99820.62
2022-11-17T19:07:38.553Z,99816.40
2022-11-17T19:11:11.970Z,99813.86
2022-11-17T19:14:38.913Z,99815.02
2022-11-17T19:18:08.980Z,99815.02
2022-11-17T19:21:38.996Z,99817.23
2022-11-17T19:25:16.771Z,99818.45
2022-11-17T19:28:50.887Z,99810.49
2022-11-17T19:32:17.674Z,99810.17
2022-11-17T19:35:46.781Z,99809.71
2022-11-17T19:39:20.479Z,99809.77
2022-11-17T19:42:50.873Z,99810.90
2022-11-17T19:46:21.857Z,99817.17
2022-11-17T19:49:48.424Z,99818.36
2022-11-17T19:53:20.995Z,99818.00
2022-11-17T19:56:49.641Z,99810.28
2022-11-17T20:00:23.270Z,99808.04
2022-11-17T20:03:50.531Z,99810.38
2022-11-17T20:07:17.957Z,99814.94
2022-11-17T20:10:44.724Z,99816.06
2022-11-17T20:14:12.668Z,99820.95
2022-11-17T20:17:41.010Z,99813.87
2022-11-17T20:21:14.473Z,99810.01
2022-11-17T20:24:41.806Z,99809.60
2022-11-17T20:28:09.914Z,99812.95
2022-11-17T20:31:38.912Z,99812.69
2022-11-17T20:35:08.017Z,99804.41
2022-11-17T20:38:36.505Z,99803.85
2022-11-17T20:42:03.324Z,99799.86
2022-11-17T20:45:30.620Z,99796.48
2022-11-17T20:48:57.504Z,99794.48
2022-11-17T20:52:26.608Z,99793.61
2022-11-17T20:56:07.578Z,99796.48
2022-11-17T20:59:37.162Z,99794.86
2022-11-17T21:03:08.582Z,99792.12
2022-11-17T21:06:38.403Z,99788.30
2022-11-17T21:10:05.327Z,99784.16
2022-11-17T21:13:39.057Z,99787.61
2022-11-17T21:17:27.270Z,99785.80
2022-11-17T21:20:59.765Z,99789.98
2022-11-17T21:24:36.978Z,99795.02
2022-11-17T21:28:07.016Z,99788.45
2022-11-17T21:31:36.046Z,99785.15
2022-11-17T21:35:10.510Z,99786.92
2022-11-17T21:38:46.026Z,99784.61
2022-11-17T21:42:17.027Z,99781.67
2022-11-17T21:45:47.787Z,99779.75
2022-11-17T21:49:20.252Z,99779.54
2022-11-17T21:52:52.552Z,99775.70
2022-11-17T21:56:26.636Z,99764.69
2022-11-17T21:59:58.296Z,99766.63
2022-11-17T22:03:34.789Z,99764.98
2022-11-17T22:07:01.754Z,99763.71
2022-11-17T22:10:32.081Z,99761.06
2022-11-17T22:14:02.078Z,99760.58
2022-11-17T22:17:31.674Z,99761.44
2022-11-17T22:20:59.485Z,99763.50
2022-11-17T22:24:28.465Z,99763.34
2022-11-17T22:27:58.267Z,99759.20
2022-11-17T22:31:29.578Z,99760.91
2022-11-17T22:35:01.959Z,99757.62
2022-11-17T22:38:30.289Z,99753.28
2022-11-17T22:41:59.103Z,99753.33
2022-11-17T22:45:26.629Z,99753.61
2022-11-17T22:48:54.855Z,99750.15
2022-11-17T22:52:22.941Z,99741.64
2022-11-17T22:55:49.737Z,99736.27
2022-11-17T22:59:16.859Z,99743.46
2022-11-17T23:02:43.658Z,99749.20
2022-11-17T23:06:11.635Z,99749.14
2022-11-17T23:09:41.032Z,99743.27
2022-11-17T23:13:10.136Z,99742.81
2022-11-17T23:16:39.877Z,99738.48
2022-11-17T23:20:08.027Z,99734.45
2022-11-17T23:23:39.970Z,99735.70
2022-11-17T23:27:09.792Z,99736.45
2022-11-17T23:30:36.843Z,99733.29
2022-11-17T23:34:03.689Z,99727.23
2022-11-17T23:37:30.885Z,99727.29
2022-11-17T23:41:02.760Z,99734.33
2022-11-17T23:44:29.733Z,99737.27
2022-11-17T23:47:56.762Z,99736.23
2022-11-17T23:51:25.814Z,99733.84
2022-11-17T23:54:53.209Z,99734.98
2022-11-17T23:58:20.467Z,99732.89
